createdAt,value
2018-04-09T00:00:20.212Z,0
2018-04-09T00:01:22.013Z,0
2018-04-09T00:02:23.737Z,0
2018-04-09T00:03:25.565Z,0
2018-04-09T00:04:27.345Z,0
2018-04-09T00:05:29.100Z,0
2018-04-09T00:06:30.918Z,0
2018-04-09T00:07:32.699Z,0
2018-04-09T00:08:34.448Z,0
2018-04-09T00:09:36.151Z,0
2018-04-09T00:10:37.850Z,0
2018-04-09T00:11:39.489Z,0
2018-04-09T00:12:41.171Z,0
2018-04-09T00:13:43.040Z,0
2018-04-09T00:14:44.909Z,0
2018-04-09T00:15:46.683Z,0
2018-04-09T00:16:48.400Z,0
2018-04-09T00:17:50.126Z,0
2018-04-09T00:18:52.245Z,0
2018-04-09T00:19:53.963Z,0
2018-04-09T00:20:55.896Z,0
2018-04-09T00:21:57.769Z,0
2018-04-09T00:22:59.536Z,0
2018-04-09T00:24:01.359Z,0
2018-04-09T00:25:03.157Z,0
2018-04-09T00:26:05.198Z,0
2018-04-09T00:27:06.948Z,0
2018-04-09T00:28:08.704Z,0
2018-04-09T00:29:10.468Z,0
2018-04-09T00:30:12.259Z,0
2018-04-09T00:31:13.948Z,0
2018-04-09T00:32:15.993Z,0
2018-04-09T00:33:17.732Z,0
2018-04-09T00:34:19.476Z,0
2018-04-09T00:35:21.393Z,0
2018-04-09T00:36:23.079Z,0
2018-04-09T00:37:24.824Z,0
2018-04-09T00:38:26.538Z,0
2018-04-09T00:39:28.376Z,0
2018-04-09T00:40:30.070Z,0
2018-04-09T00:41:31.868Z,0
2018-04-09T00:42:33.652Z,0
2018-04-09T00:43:35.417Z,0
2018-04-09T00:44:37.212Z,0
2018-04-09T00:45:38.929Z,0
2018-04-09T00:46:40.819Z,0
2018-04-09T00:47:42.566Z,0
2018-04-09T00:48:44.333Z,0
2018-04-09T00:49:45.982Z,0
2018-04-09T00:50:47.690Z,0
2018-04-09T00:51:49.570Z,0
2018-04-09T00:52:51.544Z,0
2018-04-09T00:53:53.202Z,0
2018-04-09T00:54:54.905Z,0
2018-04-09T00:55:56.629Z,0
2018-04-09T00:56:58.342Z,0
2018-04-09T00:58:00.024Z,0
2018-04-09T00:59:01.816Z,0
2018-04-09T01:00:03.570Z,0
2018-04-09T01:01:05.253Z,0
2018-04-09T01:02:07.118Z,0
2018-04-09T01:03:08.834Z,0
2018-04-09T01:04:10.641Z,0
2018-04-09T01:05:12.517Z,0
2018-04-09T01:06:14.196Z,0
2018-04-09T01:07:15.846Z,0
2018-04-09T01:08:17.660Z,0
2018-04-09T01:09:19.511Z,0
2018-04-09T01:10:21.408Z,0
2018-04-09T01:11:23.157Z,0
2018-04-09T01:12:24.902Z,0
2018-04-09T01:13:26.793Z,0
2018-04-09T01:14:28.618Z,0
2018-04-09T01:15:30.436Z,0
2018-04-09T01:16:32.210Z,0
2018-04-09T01:17:34.042Z,0
2018-04-09T01:18:35.764Z,0
2018-04-09T01:19:37.748Z,0
2018-04-09T01:20:39.548Z,0
2018-04-09T01:21:41.346Z,0
2018-04-09T01:22:43.156Z,0
2018-04-09T01:23:44.798Z,0
2018-04-09T01:24:46.725Z,0
2018-04-09T01:25:48.500Z,0
2018-04-09T01:26:50.321Z,0
2018-04-09T01:27:52.256Z,0
2018-04-09T01:28:53.901Z,0
2018-04-09T01:29:55.878Z,0
2018-04-09T01:30:57.750Z,0
2018-04-09T01:31:59.497Z,0
2018-04-09T01:33:01.328Z,0
2018-04-09T01:34:03.094Z,0
2018-04-09T01:35:04.873Z,0
2018-04-09T01:36:06.677Z,0
2018-04-09T01:37:08.410Z,0
2018-04-09T01:38:10.340Z,0
2018-04-09T01:39:12.206Z,0
2018-04-09T01:40:13.937Z,0
2018-04-09T01:41:16.416Z,0
2018-04-09T01:42:18.144Z,0
2018-04-09T01:43:19.797Z,0
2018-04-09T01:44:21.575Z,0
2018-04-09T01:45:23.274Z,0
2018-04-09T01:46:24.896Z,0
2018-04-09T01:47:26.638Z,0
2018-04-09T01:48:28.342Z,0
2018-04-09T01:49:30.082Z,0
2018-04-09T01:50:31.938Z,0
2018-04-09T01:51:33.722Z,0
2018-04-09T01:52:35.446Z,0
2018-04-09T01:53:37.434Z,0
2018-04-09T01:54:39.142Z,0
2018-04-09T01:55:40.997Z,0
2018-04-09T01:56:42.939Z,0
2018-04-09T01:57:44.671Z,0
2018-04-09T01:58:46.486Z,0
2018-04-09T01:59:48.177Z,0
2018-04-09T02:00:49.936Z,0
2018-04-09T02:01:51.693Z,0
2018-04-09T02:02:53.360Z,0
2018-04-09T02:03:55.141Z,0
2018-04-09T02:04:56.963Z,0
2018-04-09T02:05:58.794Z,0
2018-04-09T02:07:00.526Z,0
2018-04-09T02:08:02.291Z,0
2018-04-09T02:09:04.037Z,0
2018-04-09T02:10:05.624Z,0
2018-04-09T02:11:07.271Z,0
2018-04-09T02:12:09.133Z,0
2018-04-09T02:13:10.908Z,0
2018-04-09T02:14:12.671Z,0
2018-04-09T02:15:14.472Z,0
2018-04-09T02:16:16.182Z,0
2018-04-09T02:17:18.037Z,0
2018-04-09T02:18:19.881Z,0
2018-04-09T02:19:21.668Z,0
2018-04-09T02:20:23.426Z,0
2018-04-09T02:21:25.185Z,0
2018-04-09T02:22:26.962Z,0
2018-04-09T02:23:28.777Z,0
2018-04-09T02:24:30.558Z,0
2018-04-09T02:25:32.354Z,0
2018-04-09T02:26:33.956Z,0
2018-04-09T02:27:35.719Z,0
2018-04-09T02:28:37.494Z,0
2018-04-09T02:29:39.350Z,0
2018-04-09T02:30:41.033Z,0
2018-04-09T02:31:42.834Z,0
2018-04-09T02:32:44.529Z,0
2018-04-09T02:33:46.260Z,0
2018-04-09T02:34:47.949Z,0
2018-04-09T02:35:49.723Z,0
2018-04-09T02:36:51.404Z,0
2018-04-09T02:37:53.155Z,0
2018-04-09T02:38:54.866Z,0
2018-04-09T02:39:56.877Z,0
2018-04-09T02:40:58.604Z,0
2018-04-09T02:42:00.322Z,0
2018-04-09T02:43:02.013Z,0
2018-04-09T02:44:03.956Z,0
2018-04-09T02:45:05.617Z,0
2018-04-09T02:46:07.451Z,0
2018-04-09T02:47:09.284Z,0
2018-04-09T02:48:10.990Z,0
2018-04-09T02:49:12.855Z,0
2018-04-09T02:50:14.559Z,0
2018-04-09T02:51:16.438Z,0
2018-04-09T02:52:18.172Z,0
2018-04-09T02:53:19.967Z,0
2018-04-09T02:54:21.722Z,0
2018-04-09T02:55:23.745Z,0
2018-04-09T02:56:26.003Z,0
2018-04-09T02:57:28.125Z,0
2018-04-09T02:58:30.405Z,0
2018-04-09T02:59:32.441Z,0
2018-04-09T03:00:34.466Z,0
2018-04-09T03:01:36.294Z,0
2018-04-09T03:02:38.113Z,0
2018-04-09T03:03:41.182Z,0
2018-04-09T03:04:43.598Z,0
2018-04-09T03:05:45.578Z,0
2018-04-09T03:06:47.625Z,0
2018-04-09T03:07:49.385Z,0
2018-04-09T03:08:51.163Z,0
2018-04-09T03:09:53.413Z,0
2018-04-09T03:10:55.310Z,0
2018-04-09T03:11:57.708Z,0
2018-04-09T03:13:00.010Z,0
2018-04-09T03:14:02.522Z,0
2018-04-09T03:15:04.468Z,0
2018-04-09T03:16:06.433Z,0
2018-04-09T03:17:09.192Z,0
2018-04-09T03:18:11.476Z,0
2018-04-09T03:19:13.642Z,0
2018-04-09T03:20:15.581Z,0
2018-04-09T03:21:17.709Z,0
2018-04-09T03:22:19.655Z,0
2018-04-09T03:23:22.023Z,0
2018-04-09T03:24:23.988Z,0
2018-04-09T03:25:25.906Z,0
2018-04-09T03:26:27.999Z,0
2018-04-09T03:27:29.831Z,0
2018-04-09T03:28:31.713Z,0
2018-04-09T03:29:33.822Z,0
2018-04-09T03:30:35.737Z,0
2018-04-09T03:31:38.119Z,0
2018-04-09T03:32:41.031Z,0
2018-04-09T03:33:43.106Z,0
2018-04-09T03:34:45.461Z,0
2018-04-09T03:35:47.480Z,0
2018-04-09T03:36:49.580Z,0
2018-04-09T03:37:51.425Z,0
2018-04-09T03:38:53.357Z,0
2018-04-09T03:39:55.569Z,0
2018-04-09T03:40:57.495Z,0
2018-04-09T03:41:59.549Z,0
2018-04-09T03:43:01.578Z,0
2018-04-09T03:44:04.286Z,0
2018-04-09T03:45:06.197Z,0
2018-04-09T03:46:08.755Z,0
2018-04-09T03:47:10.954Z,0
2018-04-09T03:48:13.119Z,0
2018-04-09T03:49:15.140Z,0
2018-04-09T03:50:17.123Z,0
2018-04-09T03:51:19.039Z,0
2018-04-09T03:52:21.083Z,0
2018-04-09T03:53:23.147Z,0
2018-04-09T03:54:25.081Z,0
2018-04-09T03:55:27.194Z,0
2018-04-09T03:56:29.197Z,0
2018-04-09T03:57:30.995Z,0
2018-04-09T03:58:33.181Z,0
2018-04-09T03:59:35.338Z,0
2018-04-09T04:00:37.300Z,0
2018-04-09T04:01:39.258Z,0
2018-04-09T04:02:41.446Z,0
2018-04-09T04:03:43.794Z,0
2018-04-09T04:04:45.828Z,0
2018-04-09T04:05:47.950Z,0
2018-04-09T04:06:49.861Z,0
2018-04-09T04:07:51.983Z,0
2018-04-09T04:08:54.044Z,0
2018-04-09T04:09:56.110Z,0
2018-04-09T04:10:58.450Z,0
2018-04-09T04:12:00.862Z,0
2018-04-09T04:13:02.558Z,0
2018-04-09T04:14:04.349Z,0
2018-04-09T04:15:06.079Z,4
2018-04-09T04:16:07.831Z,4
2018-04-09T04:17:09.462Z,0
2018-04-09T04:18:11.139Z,4
2018-04-09T04:19:13.032Z,4
2018-04-09T04:20:14.981Z,4
2018-04-09T04:21:16.843Z,8
2018-04-09T04:22:18.646Z,8
2018-04-09T04:23:20.505Z,8
2018-04-09T04:24:22.340Z,8
2018-04-09T04:25:24.073Z,12
2018-04-09T04:26:26.019Z,12
2018-04-09T04:27:27.663Z,16
2018-04-09T04:28:29.431Z,16
2018-04-09T04:29:31.473Z,20
2018-04-09T04:30:33.190Z,24
2018-04-09T04:31:34.965Z,28
2018-04-09T04:32:36.888Z,32
2018-04-09T04:33:38.706Z,40
2018-04-09T04:34:41.698Z,44
2018-04-09T04:35:43.582Z,52
2018-04-09T04:36:45.409Z,60
2018-04-09T04:37:47.642Z,68
2018-04-09T04:38:49.612Z,76
2018-04-09T04:39:51.483Z,88
2018-04-09T04:40:53.354Z,104
2018-04-09T04:41:55.086Z,116
2018-04-09T04:42:56.850Z,128
2018-04-09T04:43:58.834Z,144
2018-04-09T04:45:00.550Z,164
2018-04-09T04:46:02.247Z,180
2018-04-09T04:47:04.178Z,200
2018-04-09T04:48:05.926Z,224
2018-04-09T04:49:07.615Z,244
2018-04-09T04:50:09.401Z,268
2018-04-09T04:51:11.161Z,292
2018-04-09T04:52:13.104Z,320
2018-04-09T04:53:14.804Z,348
2018-04-09T04:54:16.618Z,376
2018-04-09T04:55:18.369Z,408
2018-04-09T04:56:20.099Z,440
2018-04-09T04:57:21.860Z,476
2018-04-09T04:58:23.744Z,508
2018-04-09T04:59:25.504Z,544
2018-04-09T05:00:27.368Z,584
2018-04-09T05:01:29.099Z,624
2018-04-09T05:02:30.920Z,664
2018-04-09T05:03:32.626Z,708
2018-04-09T05:04:34.395Z,748
2018-04-09T05:05:36.098Z,792
2018-04-09T05:06:38.135Z,840
2018-04-09T05:07:39.923Z,892
2018-04-09T05:08:41.691Z,936
2018-04-09T05:09:43.459Z,988
2018-04-09T05:10:45.110Z,1040
2018-04-09T05:11:46.891Z,1092
2018-04-09T05:12:48.626Z,1152
2018-04-09T05:13:50.484Z,1204
2018-04-09T05:14:52.172Z,1256
2018-04-09T05:15:54.014Z,1316
2018-04-09T05:16:55.780Z,1380
2018-04-09T05:17:57.458Z,1440
2018-04-09T05:18:59.163Z,1496
2018-04-09T05:20:01.024Z,1560
2018-04-09T05:21:02.792Z,1616
2018-04-09T05:22:04.557Z,1684
2018-04-09T05:23:06.318Z,1744
2018-04-09T05:24:08.254Z,1808
2018-04-09T05:25:10.132Z,1880
2018-04-09T05:26:11.862Z,1944
2018-04-09T05:27:13.629Z,2008
2018-04-09T05:28:15.297Z,2072
2018-04-09T05:29:17.016Z,2140
2018-04-09T05:30:18.779Z,2212
2018-04-09T05:31:20.543Z,2284
2018-04-09T05:32:22.290Z,2360
2018-04-09T05:33:24.229Z,2436
2018-04-09T05:34:25.906Z,2516
2018-04-09T05:35:27.645Z,2600
2018-04-09T05:36:29.380Z,2680
2018-04-09T05:37:31.133Z,2760
2018-04-09T05:38:32.743Z,2836
2018-04-09T05:39:34.602Z,2924
2018-04-09T05:40:36.433Z,3004
2018-04-09T05:41:38.202Z,3096
2018-04-09T05:42:39.922Z,3188
2018-04-09T05:43:41.663Z,3280
2018-04-09T05:44:43.454Z,3364
2018-04-09T05:45:45.178Z,3456
2018-04-09T05:46:46.963Z,3544
2018-04-09T05:47:48.726Z,3636
2018-04-09T05:48:50.460Z,3732
2018-04-09T05:49:52.202Z,3828
2018-04-09T05:50:54.087Z,3928
2018-04-09T05:51:55.796Z,4032
2018-04-09T05:52:57.632Z,4136
2018-04-09T05:53:59.379Z,4228
2018-04-09T05:55:01.056Z,4364
2018-04-09T05:56:02.816Z,4476
2018-04-09T05:57:04.600Z,4576
2018-04-09T05:58:06.346Z,4672
2018-04-09T05:59:08.106Z,4788
2018-04-09T06:00:09.740Z,4896
2018-04-09T06:01:11.421Z,5008
2018-04-09T06:02:13.220Z,5116
2018-04-09T06:03:14.954Z,5232
2018-04-09T06:04:16.664Z,5352
2018-04-09T06:05:18.405Z,5464
2018-04-09T06:06:20.134Z,5600
2018-04-09T06:07:21.883Z,5756
2018-04-09T06:08:23.614Z,5904
2018-04-09T06:09:25.415Z,6036
2018-04-09T06:10:27.084Z,6176
2018-04-09T06:11:28.849Z,6368
2018-04-09T06:12:30.562Z,6560
2018-04-09T06:13:32.381Z,6768
2018-04-09T06:14:34.170Z,6996
2018-04-09T06:15:35.886Z,7248
2018-04-09T06:16:37.617Z,7524
2018-04-09T06:17:39.380Z,7764
2018-04-09T06:18:41.061Z,7936
2018-04-09T06:19:42.823Z,8120
2018-04-09T06:20:44.580Z,8512
2018-04-09T06:21:46.289Z,8796
2018-04-09T06:22:48.079Z,8944
2018-04-09T06:23:49.761Z,8980
2018-04-09T06:24:51.517Z,9004
2018-04-09T06:25:53.175Z,8968
2018-04-09T06:26:54.930Z,8888
2018-04-09T06:27:56.648Z,8756
2018-04-09T06:28:58.409Z,8712
2018-04-09T06:30:00.241Z,8752
2018-04-09T06:31:01.982Z,8792
2018-04-09T06:32:03.719Z,8896
2018-04-09T06:33:05.441Z,8832
2018-04-09T06:34:07.199Z,8424
2018-04-09T06:35:08.965Z,7540
2018-04-09T06:36:10.747Z,7844
2018-04-09T06:37:12.521Z,8356
2018-04-09T06:38:14.343Z,8880
2018-04-09T06:39:15.999Z,8804
2018-04-09T06:40:17.790Z,8012
2018-04-09T06:41:19.499Z,7212
2018-04-09T06:42:21.320Z,8628
2018-04-09T06:43:23.033Z,8488
2018-04-09T06:44:24.855Z,8560
2018-04-09T06:45:26.685Z,8828
2018-04-09T06:46:28.430Z,7432
2018-04-09T06:47:30.192Z,7924
2018-04-09T06:48:32.066Z,8768
2018-04-09T06:49:33.837Z,9112
2018-04-09T06:50:35.596Z,8908
2018-04-09T06:51:37.398Z,9220
2018-04-09T06:52:39.181Z,8856
2018-04-09T06:53:40.907Z,8812
2018-04-09T06:54:42.715Z,8820
2018-04-09T06:55:44.440Z,9376
2018-04-09T06:56:46.233Z,10296
2018-04-09T06:57:47.888Z,9896
2018-04-09T06:58:49.623Z,9140
2018-04-09T06:59:51.417Z,8940
2018-04-09T07:00:53.200Z,9092
2018-04-09T07:01:54.869Z,9244
2018-04-09T07:02:56.643Z,9372
2018-04-09T07:03:58.506Z,9428
2018-04-09T07:05:00.267Z,9276
2018-04-09T07:06:01.957Z,9316
2018-04-09T07:07:03.644Z,9524
2018-04-09T07:08:05.439Z,9660
2018-04-09T07:09:07.273Z,9576
2018-04-09T07:10:09.004Z,9944
2018-04-09T07:11:10.781Z,9836
2018-04-09T07:12:12.536Z,9588
2018-04-09T07:13:14.317Z,9152
2018-04-09T07:14:16.054Z,8928
2018-04-09T07:15:17.946Z,8724
2018-04-09T07:16:19.773Z,8696
2018-04-09T07:17:21.629Z,8804
2018-04-09T07:18:23.368Z,8952
2018-04-09T07:19:25.117Z,9144
2018-04-09T07:20:26.890Z,9408
2018-04-09T07:21:28.686Z,9656
2018-04-09T07:22:30.464Z,9908
2018-04-09T07:23:32.176Z,10024
2018-04-09T07:24:33.888Z,10060
2018-04-09T07:25:35.692Z,10428
2018-04-09T07:26:37.443Z,10656
2018-04-09T07:27:39.217Z,10380
2018-04-09T07:28:40.951Z,10252
2018-04-09T07:29:42.734Z,9884
2018-04-09T07:30:44.521Z,9988
2018-04-09T07:31:46.283Z,9900
2018-04-09T07:32:48.003Z,9840
2018-04-09T07:33:49.723Z,9900
2018-04-09T07:34:51.386Z,10016
2018-04-09T07:35:53.159Z,10200
2018-04-09T07:36:54.832Z,10380
2018-04-09T07:37:56.689Z,10380
2018-04-09T07:38:58.511Z,10316
2018-04-09T07:40:00.253Z,10624
2018-04-09T07:41:02.119Z,12104
2018-04-09T07:42:03.849Z,11368
2018-04-09T07:43:05.548Z,11320
2018-04-09T07:44:07.310Z,11464
2018-04-09T07:45:09.023Z,11584
2018-04-09T07:46:10.583Z,11576
2018-04-09T07:47:12.336Z,11748
2018-04-09T07:48:14.050Z,12104
2018-04-09T07:49:15.846Z,12420
2018-04-09T07:50:17.625Z,12768
2018-04-09T07:51:19.400Z,12944
2018-04-09T07:52:21.116Z,12800
2018-04-09T07:53:22.858Z,12660
2018-04-09T07:54:24.561Z,12612
2018-04-09T07:55:26.265Z,14108
2018-04-09T07:56:28.033Z,13052
2018-04-09T07:57:29.958Z,12716
2018-04-09T07:58:31.557Z,12624
2018-04-09T07:59:33.915Z,12664
2018-04-09T08:00:35.625Z,12480
2018-04-09T08:01:37.374Z,12188
2018-04-09T08:02:39.403Z,12008
2018-04-09T08:03:41.136Z,12080
2018-04-09T08:04:42.838Z,11960
2018-04-09T08:05:44.553Z,11700
2018-04-09T08:06:46.336Z,11636
2018-04-09T08:07:48.096Z,11888
2018-04-09T08:08:49.845Z,12480
2018-04-09T08:09:51.650Z,13324
2018-04-09T08:10:53.527Z,14328
2018-04-09T08:11:55.182Z,15088
2018-04-09T08:12:57.586Z,15520
2018-04-09T08:13:59.362Z,16288
2018-04-09T08:15:01.061Z,18112
2018-04-09T08:16:02.954Z,16960
2018-04-09T08:17:04.751Z,17888
2018-04-09T08:18:06.584Z,18912
2018-04-09T08:19:08.716Z,18592
2018-04-09T08:20:10.405Z,16512
2018-04-09T08:21:12.105Z,15872
2018-04-09T08:22:13.968Z,15712
2018-04-09T08:23:16.188Z,14660
2018-04-09T08:24:17.978Z,14172
2018-04-09T08:25:19.625Z,13876
2018-04-09T08:26:21.404Z,13900
2018-04-09T08:27:23.186Z,14136
2018-04-09T08:28:24.898Z,14668
2018-04-09T08:29:26.745Z,14848
2018-04-09T08:30:28.567Z,15028
2018-04-09T08:31:30.429Z,15424
2018-04-09T08:32:32.187Z,15744
2018-04-09T08:33:34.262Z,15840
2018-04-09T08:34:36.093Z,16608
2018-04-09T08:35:37.861Z,17696
2018-04-09T08:36:39.650Z,18720
2018-04-09T08:37:41.399Z,19584
2018-04-09T08:38:44.124Z,19840
2018-04-09T08:39:45.920Z,20672
2018-04-09T08:40:47.677Z,22176
2018-04-09T08:41:49.718Z,21088
2018-04-09T08:42:51.399Z,21088
2018-04-09T08:43:53.171Z,19904
2018-04-09T08:44:54.944Z,19264
2018-04-09T08:45:56.656Z,18400
2018-04-09T08:46:58.394Z,17760
2018-04-09T08:48:00.095Z,17152
2018-04-09T08:49:01.834Z,16864
2018-04-09T08:50:03.628Z,16800
2018-04-09T08:51:05.273Z,16736
2018-04-09T08:52:07.109Z,16736
2018-04-09T08:53:08.810Z,16800
2018-04-09T08:54:10.623Z,16640
2018-04-09T08:55:12.351Z,16384
2018-04-09T08:56:14.071Z,16480
2018-04-09T08:57:15.785Z,16448
2018-04-09T08:58:17.502Z,16608
2018-04-09T08:59:19.322Z,17472
2018-04-09T09:00:21.102Z,17216
2018-04-09T09:01:22.910Z,16896
2018-04-09T09:02:24.798Z,16544
2018-04-09T09:03:26.540Z,16512
2018-04-09T09:04:28.224Z,16768
2018-04-09T09:05:30.007Z,16896
2018-04-09T09:06:31.790Z,17056
2018-04-09T09:07:33.644Z,17248
2018-04-09T09:08:35.430Z,17632
2018-04-09T09:09:37.224Z,17792
2018-04-09T09:10:38.920Z,18080
2018-04-09T09:11:40.767Z,18240
2018-04-09T09:12:42.456Z,18304
2018-04-09T09:13:44.242Z,18432
2018-04-09T09:14:46.120Z,18976
2018-04-09T09:15:47.885Z,18912
2018-04-09T09:16:49.676Z,19520
2018-04-09T09:17:51.494Z,23520
2018-04-09T09:18:53.242Z,19392
2018-04-09T09:19:54.993Z,18656
2018-04-09T09:20:56.720Z,19040
2018-04-09T09:21:59.154Z,20000
2018-04-09T09:23:00.877Z,21120
2018-04-09T09:24:02.681Z,41376
2018-04-09T09:25:04.586Z,47488
2018-04-09T09:26:06.256Z,51552
2018-04-09T09:27:08.043Z,52032
2018-04-09T09:28:09.832Z,52896
2018-04-09T09:29:11.596Z,39328
2018-04-09T09:30:13.684Z,43296
2018-04-09T09:31:15.484Z,33184
2018-04-09T09:32:17.389Z,26624
2018-04-09T09:33:19.456Z,26624
2018-04-09T09:34:21.267Z,52928
2018-04-09T09:35:23.164Z,51456
2018-04-09T09:36:24.999Z,46496
2018-04-09T09:37:26.750Z,55552
2018-04-09T09:38:28.527Z,59840
2018-04-09T09:39:30.381Z,73120
2018-04-09T09:40:32.248Z,64704
2018-04-09T09:41:34.001Z,50624
2018-04-09T09:42:35.924Z,41824
2018-04-09T09:43:37.747Z,33632
2018-04-09T09:44:39.570Z,33376
2018-04-09T09:45:41.246Z,45632
2018-04-09T09:46:43.272Z,34336
2018-04-09T09:47:44.962Z,37888
2018-04-09T09:48:46.698Z,33024
2018-04-09T09:49:48.478Z,30304
2018-04-09T09:50:50.189Z,31264
2018-04-09T09:51:52.295Z,32704
2018-04-09T09:52:54.138Z,30720
2018-04-09T09:53:56.080Z,31200
2018-04-09T09:54:57.739Z,31040
2018-04-09T09:55:59.484Z,33696
2018-04-09T09:57:01.328Z,24544
2018-04-09T09:58:03.183Z,21408
2018-04-09T09:59:04.915Z,21888
2018-04-09T10:00:07.100Z,23584
2018-04-09T10:01:08.829Z,27008
2018-04-09T10:02:10.553Z,29536
2018-04-09T10:03:12.626Z,27808
2018-04-09T10:04:14.377Z,26656
2018-04-09T10:05:16.107Z,28544
2018-04-09T10:06:17.900Z,34272
2018-04-09T10:07:19.739Z,41888
2018-04-09T10:08:21.419Z,42144
2018-04-09T10:09:23.216Z,37120
2018-04-09T10:10:25.056Z,30400
2018-04-09T10:11:26.768Z,29152
2018-04-09T10:12:28.483Z,26784
2018-04-09T10:13:30.252Z,32000
2018-04-09T10:14:32.082Z,36320
2018-04-09T10:15:33.900Z,33472
2018-04-09T10:16:35.605Z,40384
2018-04-09T10:17:37.301Z,37376
2018-04-09T10:18:39.136Z,28384
2018-04-09T10:19:40.788Z,24448
2018-04-09T10:20:42.501Z,24000
2018-04-09T10:21:44.279Z,25696
2018-04-09T10:22:45.964Z,30944
2018-04-09T10:23:47.758Z,33984
2018-04-09T10:24:49.505Z,37024
2018-04-09T10:25:51.337Z,39104
2018-04-09T10:26:52.984Z,35840
2018-04-09T10:27:54.741Z,48992
2018-04-09T10:28:56.482Z,43648
2018-04-09T10:29:58.183Z,40320
2018-04-09T10:30:59.909Z,40160
2018-04-09T10:32:01.591Z,42208
2018-04-09T10:33:03.269Z,28736
2018-04-09T10:34:05.039Z,26304
2018-04-09T10:35:06.831Z,23232
2018-04-09T10:36:08.682Z,23104
2018-04-09T10:37:10.631Z,23008
2018-04-09T10:38:12.546Z,25184
2018-04-09T10:39:14.601Z,28160
2018-04-09T10:40:16.436Z,25696
2018-04-09T10:41:18.251Z,26816
2018-04-09T10:42:20.064Z,27424
2018-04-09T10:43:22.002Z,25440
2018-04-09T10:44:23.906Z,25792
2018-04-09T10:45:25.701Z,30848
2018-04-09T10:46:27.507Z,33856
2018-04-09T10:47:29.338Z,32896
2018-04-09T10:48:31.381Z,31168
2018-04-09T10:49:33.341Z,37440
2018-04-09T10:50:35.227Z,36448
2018-04-09T10:51:37.100Z,42112
2018-04-09T10:52:39.141Z,51808
2018-04-09T10:53:40.955Z,55648
2018-04-09T10:54:43.151Z,56960
2018-04-09T10:55:45.612Z,66464
2018-04-09T10:56:47.726Z,49312
2018-04-09T10:57:49.611Z,49152
2018-04-09T10:58:51.369Z,43584
2018-04-09T10:59:53.221Z,50432
2018-04-09T11:00:55.150Z,49408
2018-04-09T11:01:56.878Z,44960
2018-04-09T11:02:59.014Z,40928
2018-04-09T11:04:00.819Z,46240
2018-04-09T11:05:02.568Z,37856
2018-04-09T11:06:04.532Z,48064
2018-04-09T11:07:06.342Z,40512
2018-04-09T11:08:08.178Z,50592
2018-04-09T11:09:10.777Z,28992
2018-04-09T11:10:12.643Z,31712
2018-04-09T11:11:14.687Z,36864
2018-04-09T11:12:16.807Z,26464
2018-04-09T11:13:18.633Z,26752
2018-04-09T11:14:20.435Z,27136
2018-04-09T11:15:22.267Z,28064
2018-04-09T11:16:24.163Z,33248
2018-04-09T11:17:25.937Z,32448
2018-04-09T11:18:27.645Z,34080
2018-04-09T11:19:29.402Z,32096
2018-04-09T11:20:31.252Z,27616
2018-04-09T11:21:32.925Z,30560
2018-04-09T11:22:34.813Z,26624
2018-04-09T11:23:36.652Z,26144
2018-04-09T11:24:38.415Z,24832
2018-04-09T11:25:40.186Z,24800
2018-04-09T11:26:42.062Z,24096
2018-04-09T11:27:43.857Z,25888
2018-04-09T11:28:45.646Z,23872
2018-04-09T11:29:47.431Z,23488
2018-04-09T11:30:49.407Z,29312
2018-04-09T11:31:51.297Z,27648
2018-04-09T11:32:53.037Z,32032
2018-04-09T11:33:54.729Z,38496
2018-04-09T11:34:56.462Z,41856
2018-04-09T11:35:58.229Z,35776
2018-04-09T11:37:00.124Z,38784
2018-04-09T11:38:01.966Z,47552
2018-04-09T11:39:03.911Z,53536
2018-04-09T11:40:05.733Z,62816
2018-04-09T11:41:07.530Z,60544
2018-04-09T11:42:09.558Z,49632
2018-04-09T11:43:11.355Z,49152
2018-04-09T11:44:13.192Z,41600
2018-04-09T11:45:15.026Z,38848
2018-04-09T11:46:16.985Z,39392
2018-04-09T11:47:18.881Z,37376
2018-04-09T11:48:20.690Z,31776
2018-04-09T11:49:22.553Z,28320
2018-04-09T11:50:24.468Z,24832
2018-04-09T11:51:26.360Z,20896
2018-04-09T11:52:28.113Z,19264
2018-04-09T11:53:30.118Z,19008
2018-04-09T11:54:32.065Z,18528
2018-04-09T11:55:33.884Z,17952
2018-04-09T11:56:35.790Z,16928
2018-04-09T11:57:37.536Z,16608
2018-04-09T11:58:39.297Z,16416
2018-04-09T11:59:41.114Z,16480
2018-04-09T12:00:42.876Z,16800
2018-04-09T12:01:44.779Z,17376
2018-04-09T12:02:46.550Z,17888
2018-04-09T12:03:48.469Z,20448
2018-04-09T12:04:50.395Z,26016
2018-04-09T12:05:52.340Z,28704
2018-04-09T12:06:54.228Z,27104
2018-04-09T12:07:56.117Z,25248
2018-04-09T12:08:57.988Z,23872
2018-04-09T12:09:59.802Z,24416
2018-04-09T12:11:01.823Z,31808
2018-04-09T12:12:03.578Z,41376
2018-04-09T12:13:05.529Z,44832
2018-04-09T12:14:07.276Z,37504
2018-04-09T12:15:09.160Z,35296
2018-04-09T12:16:10.871Z,30400
2018-04-09T12:17:12.757Z,28160
2018-04-09T12:18:14.643Z,28000
2018-04-09T12:19:16.521Z,25664
2018-04-09T12:20:18.336Z,23136
2018-04-09T12:21:20.171Z,23456
2018-04-09T12:22:22.028Z,24800
2018-04-09T12:23:23.717Z,21536
2018-04-09T12:24:25.543Z,22304
2018-04-09T12:25:27.478Z,26528
2018-04-09T12:26:29.395Z,23456
2018-04-09T12:27:31.234Z,27936
2018-04-09T12:28:33.199Z,26272
2018-04-09T12:29:35.081Z,39648
2018-04-09T12:30:36.886Z,55008
2018-04-09T12:31:38.535Z,46432
2018-04-09T12:32:41.094Z,28960
2018-04-09T12:33:42.905Z,29632
2018-04-09T12:34:44.727Z,30496
2018-04-09T12:35:46.455Z,31904
2018-04-09T12:36:48.317Z,34272
2018-04-09T12:37:50.151Z,35104
2018-04-09T12:38:51.902Z,36768
2018-04-09T12:39:53.670Z,27264
2018-04-09T12:40:55.522Z,22336
2018-04-09T12:41:57.337Z,20448
2018-04-09T12:42:59.007Z,19904
2018-04-09T12:44:00.814Z,19488
2018-04-09T12:45:02.643Z,18880
2018-04-09T12:46:04.703Z,18368
2018-04-09T12:47:06.575Z,17888
2018-04-09T12:48:08.441Z,17344
2018-04-09T12:49:10.455Z,16992
2018-04-09T12:50:12.416Z,16608
2018-04-09T12:51:14.472Z,16320
2018-04-09T12:52:16.246Z,16160
2018-04-09T12:53:18.131Z,16256
2018-04-09T12:54:20.055Z,16512
2018-04-09T12:55:21.915Z,16832
2018-04-09T12:56:23.722Z,17280
2018-04-09T12:57:25.694Z,17856
2018-04-09T12:58:27.488Z,18624
2018-04-09T12:59:29.357Z,19584
2018-04-09T13:00:31.214Z,21504
2018-04-09T13:01:33.138Z,23712
2018-04-09T13:02:34.849Z,24352
2018-04-09T13:03:37.108Z,24672
2018-04-09T13:04:38.982Z,24640
2018-04-09T13:05:40.828Z,26016
2018-04-09T13:06:42.609Z,26176
2018-04-09T13:07:44.534Z,31264
2018-04-09T13:08:46.337Z,32512
2018-04-09T13:09:48.150Z,34528
2018-04-09T13:10:50.020Z,33568
2018-04-09T13:11:51.863Z,31776
2018-04-09T13:12:53.698Z,30176
2018-04-09T13:13:55.491Z,28608
2018-04-09T13:14:57.339Z,27072
2018-04-09T13:15:59.168Z,23456
2018-04-09T13:17:00.932Z,21152
2018-04-09T13:18:02.810Z,19200
2018-04-09T13:19:04.707Z,18848
2018-04-09T13:20:06.758Z,18080
2018-04-09T13:21:08.606Z,18272
2018-04-09T13:22:10.542Z,19712
2018-04-09T13:23:12.408Z,22144
2018-04-09T13:24:14.316Z,21792
2018-04-09T13:25:16.338Z,23776
2018-04-09T13:26:18.307Z,26048
2018-04-09T13:27:20.212Z,28704
2018-04-09T13:28:22.035Z,32480
2018-04-09T13:29:23.857Z,34752
2018-04-09T13:30:25.651Z,35008
2018-04-09T13:31:27.479Z,41472
2018-04-09T13:32:29.299Z,49824
2018-04-09T13:33:31.292Z,50368
2018-04-09T13:34:33.203Z,53280
2018-04-09T13:35:35.198Z,51360
2018-04-09T13:36:37.024Z,54624
2018-04-09T13:37:39.150Z,54848
2018-04-09T13:38:40.950Z,52864
2018-04-09T13:39:42.856Z,49312
2018-04-09T13:40:44.877Z,42624
2018-04-09T13:41:46.799Z,39904
2018-04-09T13:42:48.751Z,42240
2018-04-09T13:43:50.630Z,43168
2018-04-09T13:44:52.345Z,43488
2018-04-09T13:45:54.137Z,45024
2018-04-09T13:46:56.028Z,43456
2018-04-09T13:47:57.745Z,41856
2018-04-09T13:48:59.710Z,39200
2018-04-09T13:50:01.515Z,36928
2018-04-09T13:51:03.374Z,37024
2018-04-09T13:52:05.184Z,36192
2018-04-09T13:53:06.941Z,36160
2018-04-09T13:54:08.631Z,35616
2018-04-09T13:55:10.368Z,35328
2018-04-09T13:56:12.183Z,34752
2018-04-09T13:57:13.933Z,31360
2018-04-09T13:58:15.692Z,28480